createdAt,value
2018-07-15T00:00:10.467Z,61.58
2018-07-15T00:02:36.436Z,61.16
2018-07-15T00:05:02.415Z,59.23
2018-07-15T00:07:28.379Z,59.93
2018-07-15T00:09:54.387Z,59.33
2018-07-15T00:12:20.355Z,59.61
2018-07-15T00:14:46.319Z,59.73
2018-07-15T00:17:12.256Z,61.11
2018-07-15T00:19:38.224Z,61.17
2018-07-15T00:22:04.170Z,62.32
2018-07-15T00:24:30.130Z,63.05
2018-07-15T00:26:56.065Z,62.64
2018-07-15T00:29:22.007Z,63.59
2018-07-15T00:31:47.984Z,61.18
2018-07-15T00:34:13.952Z,58.93
2018-07-15T00:36:39.934Z,58.87
2018-07-15T00:39:05.869Z,60.84
2018-07-15T00:41:31.861Z,62.06
2018-07-15T00:43:57.798Z,63.70
2018-07-15T00:46:23.765Z,60.01
2018-07-15T00:48:49.756Z,60.19
2018-07-15T00:51:15.728Z,62.56
2018-07-15T00:53:41.687Z,62.42
2018-07-15T00:56:07.679Z,62.74
2018-07-15T00:58:33.637Z,63.83
2018-07-15T01:00:59.592Z,63.15
2018-07-15T01:03:25.548Z,63.80
2018-07-15T01:05:51.500Z,66.10
2018-07-15T01:08:17.446Z,65.58
2018-07-15T01:10:43.385Z,63.82
2018-07-15T01:13:09.347Z,63.99
2018-07-15T01:15:35.314Z,64.24
2018-07-15T01:18:01.268Z,65.62
2018-07-15T01:20:27.259Z,65.55
2018-07-15T01:22:53.231Z,64.73
2018-07-15T01:25:19.217Z,64.80
2018-07-15T01:27:45.179Z,64.97
2018-07-15T01:30:11.123Z,64.71
2018-07-15T01:32:37.074Z,63.67
2018-07-15T01:35:03.009Z,64.88
2018-07-15T01:37:28.960Z,64.96
2018-07-15T01:39:54.924Z,64.63
2018-07-15T01:42:20.869Z,66.12
2018-07-15T01:44:46.825Z,65.36
2018-07-15T01:47:12.769Z,65.52
2018-07-15T01:49:38.720Z,65.44
2018-07-15T01:52:04.650Z,65.49
2018-07-15T01:54:30.593Z,66.26
2018-07-15T01:56:56.579Z,65.65
2018-07-15T01:59:22.645Z,65.97
2018-07-15T02:01:48.629Z,64.55
2018-07-15T02:04:14.608Z,65.48
2018-07-15T02:06:40.570Z,63.78
2018-07-15T02:09:06.501Z,63.00
2018-07-15T02:11:32.455Z,63.94
2018-07-15T02:13:58.398Z,64.49
2018-07-15T02:16:24.370Z,65.66
2018-07-15T02:18:50.342Z,65.49
2018-07-15T02:21:16.299Z,66.33
2018-07-15T02:23:42.287Z,68.42
2018-07-15T02:26:08.257Z,69.31
2018-07-15T02:28:34.231Z,68.51
2018-07-15T02:31:00.188Z,68.90
2018-07-15T02:33:26.152Z,68.52
2018-07-15T02:35:52.125Z,66.83
2018-07-15T02:38:18.122Z,67.07
2018-07-15T02:40:44.089Z,67.63
2018-07-15T02:43:10.040Z,68.24
2018-07-15T02:45:36.018Z,66.55
2018-07-15T02:48:01.964Z,69.20
2018-07-15T02:50:28.004Z,69.18
2018-07-15T02:52:54.019Z,68.13
2018-07-15T02:55:19.989Z,67.09
2018-07-15T02:57:45.980Z,67.86
2018-07-15T03:00:12.150Z,68.20
2018-07-15T03:02:38.124Z,69.43
2018-07-15T03:05:04.161Z,70.02
2018-07-15T03:07:30.154Z,68.49
2018-07-15T03:09:56.170Z,66.46
2018-07-15T03:12:22.126Z,67.57
2018-07-15T03:14:48.112Z,67.81
2018-07-15T03:17:14.081Z,67.61
2018-07-15T03:19:40.029Z,66.96
2018-07-15T03:22:05.996Z,65.05
2018-07-15T03:24:31.997Z,65.73
2018-07-15T03:26:57.964Z,66.73
2018-07-15T03:29:23.928Z,66.82
2018-07-15T03:31:49.876Z,65.44
2018-07-15T03:34:15.842Z,65.21
2018-07-15T03:36:41.791Z,63.81
2018-07-15T03:39:07.781Z,64.95
2018-07-15T03:41:33.737Z,65.25
2018-07-15T03:43:59.732Z,63.41
2018-07-15T03:46:25.700Z,65.68
2018-07-15T03:48:51.708Z,65.35
2018-07-15T03:51:17.658Z,65.50
2018-07-15T03:53:43.632Z,66.45
2018-07-15T03:56:09.619Z,68.01
2018-07-15T03:58:35.625Z,67.54
2018-07-15T04:01:01.601Z,68.07
2018-07-15T04:03:27.568Z,66.67
2018-07-15T04:05:53.540Z,67.54
2018-07-15T04:08:19.522Z,69.31
2018-07-15T04:10:45.481Z,69.60
2018-07-15T04:13:11.453Z,68.96
2018-07-15T04:15:37.433Z,66.33
2018-07-15T04:18:03.399Z,66.16
2018-07-15T04:20:29.358Z,67.29
2018-07-15T04:22:55.333Z,66.17
2018-07-15T04:25:21.294Z,64.65
2018-07-15T04:27:47.266Z,63.96
2018-07-15T04:30:13.235Z,63.45
2018-07-15T04:32:39.189Z,64.14
2018-07-15T04:35:05.131Z,65.75
2018-07-15T04:37:31.101Z,65.78
2018-07-15T04:39:57.032Z,64.24
2018-07-15T04:42:22.970Z,63.10
2018-07-15T04:47:21.356Z,62.05
2018-07-15T04:49:47.325Z,62.20
2018-07-15T04:52:13.275Z,62.57
2018-07-15T04:54:39.323Z,62.13
2018-07-15T04:57:05.317Z,62.15
2018-07-15T04:59:31.270Z,63.68
2018-07-15T05:01:57.302Z,63.93
2018-07-15T05:04:23.215Z,63.81
2018-07-15T05:06:49.178Z,63.98
2018-07-15T05:09:15.127Z,61.44
2018-07-15T05:11:41.081Z,60.93
2018-07-15T05:14:07.054Z,59.52
2018-07-15T05:16:33.012Z,59.36
2018-07-15T05:18:58.981Z,58.08
2018-07-15T05:21:24.933Z,58.35
2018-07-15T05:23:50.893Z,57.82
2018-07-15T05:26:16.864Z,56.96
2018-07-15T05:28:42.835Z,56.96
2018-07-15T05:31:08.786Z,57.29
2018-07-15T05:33:34.741Z,55.24
2018-07-15T05:36:00.688Z,54.89
2018-07-15T05:38:26.685Z,55.84
2018-07-15T05:40:52.624Z,54.83
2018-07-15T05:43:18.592Z,55.95
2018-07-15T05:45:44.548Z,55.97
2018-07-15T05:48:10.510Z,53.30
2018-07-15T05:50:36.497Z,54.45
2018-07-15T05:53:02.475Z,53.36
2018-07-15T05:55:28.438Z,52.59
2018-07-15T05:57:54.420Z,51.46
2018-07-15T06:00:20.400Z,52.92
2018-07-15T06:02:46.402Z,52.11
2018-07-15T06:05:12.385Z,54.50
2018-07-15T06:07:38.428Z,54.71
2018-07-15T06:10:04.459Z,53.50
2018-07-15T06:12:31.506Z,49.97
2018-07-15T06:14:57.476Z,51.66
2018-07-15T06:17:23.450Z,51.09
2018-07-15T06:19:49.436Z,49.38
2018-07-15T06:22:15.541Z,48.83
2018-07-15T06:24:41.465Z,48.12
2018-07-15T06:27:07.443Z,48.50
2018-07-15T06:29:33.572Z,47.94
2018-07-15T06:31:59.544Z,48.69
2018-07-15T06:34:25.491Z,49.06
2018-07-15T06:36:51.471Z,45.97
2018-07-15T06:39:17.462Z,47.31
2018-07-15T06:41:43.421Z,46.95
2018-07-15T06:44:09.402Z,44.72
2018-07-15T06:46:35.362Z,44.83
2018-07-15T06:49:01.310Z,45.39
2018-07-15T06:51:27.273Z,45.60
2018-07-15T06:53:53.289Z,43.64
2018-07-15T06:56:19.222Z,43.32
2018-07-15T06:58:45.196Z,44.59
2018-07-15T07:01:11.162Z,42.47
2018-07-15T07:06:09.033Z,41.66
2018-07-15T07:08:34.994Z,41.40
2018-07-15T07:11:01.026Z,43.50
2018-07-15T07:13:27.061Z,45.27
2018-07-15T07:15:53.065Z,45.09
2018-07-15T07:18:19.061Z,46.25
2018-07-15T07:20:45.021Z,46.27
2018-07-15T07:23:11.002Z,47.13
2018-07-15T07:25:36.982Z,46.67
2018-07-15T07:28:02.945Z,45.93
2018-07-15T07:30:28.927Z,46.49
2018-07-15T07:32:54.888Z,46.11
2018-07-15T07:35:20.918Z,46.04
2018-07-15T07:37:46.896Z,46.00
2018-07-15T07:40:12.966Z,46.18
2018-07-15T07:42:38.955Z,46.40
2018-07-15T07:47:36.478Z,44.87
2018-07-15T07:50:02.483Z,45.27
2018-07-15T07:52:28.443Z,46.02
2018-07-15T07:54:54.404Z,44.44
2018-07-15T07:57:21.497Z,44.58
2018-07-15T07:59:47.494Z,43.93
2018-07-15T08:02:13.499Z,41.94
2018-07-15T08:04:39.455Z,40.90
2018-07-15T08:07:05.475Z,37.58
2018-07-15T08:09:31.484Z,33.29
2018-07-15T08:11:57.511Z,35.57
2018-07-15T08:14:23.478Z,42.26
2018-07-15T08:16:49.425Z,44.29
2018-07-15T08:19:15.492Z,37.94
2018-07-15T08:21:41.486Z,42.87
2018-07-15T08:24:07.537Z,45.64
2018-07-15T08:26:33.532Z,45.44
2018-07-15T08:28:59.480Z,45.60
2018-07-15T08:31:25.474Z,45.19
2018-07-15T08:33:51.456Z,47.28
2018-07-15T08:36:17.435Z,49.14
2018-07-15T08:38:43.521Z,50.34
2018-07-15T08:41:09.565Z,48.79
2018-07-15T08:43:35.490Z,47.40
2018-07-15T08:46:01.568Z,48.14
2018-07-15T08:48:27.577Z,48.90
2018-07-15T08:50:53.541Z,48.09
2018-07-15T08:53:19.521Z,48.05
2018-07-15T08:55:45.488Z,48.50
2018-07-15T08:58:11.460Z,47.90
2018-07-15T09:00:37.404Z,47.90
2018-07-15T09:03:03.361Z,48.31
2018-07-15T09:05:29.345Z,47.20
2018-07-15T09:07:55.311Z,47.94
2018-07-15T09:10:21.279Z,47.96
2018-07-15T09:12:47.247Z,47.37
2018-07-15T09:15:13.238Z,47.94
2018-07-15T09:17:39.203Z,48.04
2018-07-15T09:20:05.159Z,47.20
2018-07-15T09:22:31.138Z,46.85
2018-07-15T09:24:57.101Z,48.21
2018-07-15T09:27:23.075Z,47.88
2018-07-15T09:29:49.040Z,47.26
2018-07-15T09:32:15.020Z,47.57
2018-07-15T09:34:41.061Z,47.61
2018-07-15T09:37:07.049Z,49.00
2018-07-15T09:39:33.066Z,48.27
2018-07-15T09:41:59.051Z,47.75
2018-07-15T09:44:25.040Z,49.23
2018-07-15T09:46:51.065Z,48.33
2018-07-15T09:49:17.026Z,47.12
2018-07-15T09:51:43.190Z,46.93
2018-07-15T09:54:09.172Z,46.86
2018-07-15T09:56:35.138Z,48.62
2018-07-15T09:59:01.106Z,47.09
2018-07-15T10:01:27.071Z,47.55
2018-07-15T10:03:53.024Z,48.51
2018-07-15T10:06:18.983Z,47.32
2018-07-15T10:08:44.997Z,47.52
2018-07-15T10:11:10.965Z,47.48
2018-07-15T10:13:36.983Z,47.13
2018-07-15T10:16:02.982Z,48.03
2018-07-15T10:18:28.953Z,47.66
2018-07-15T10:20:54.910Z,47.48
2018-07-15T10:23:20.879Z,47.18
2018-07-15T10:25:46.854Z,47.42
2018-07-15T10:28:12.946Z,48.91
2018-07-15T10:30:38.935Z,47.73
2018-07-15T10:33:05.001Z,48.13
2018-07-15T10:35:30.919Z,47.14
2018-07-15T10:37:56.916Z,46.05
2018-07-15T10:40:22.984Z,46.36
2018-07-15T10:42:48.968Z,47.40
2018-07-15T10:45:14.907Z,47.10
2018-07-15T10:47:40.889Z,47.99
2018-07-15T10:50:06.871Z,47.95
2018-07-15T10:52:32.902Z,46.58
2018-07-15T10:54:58.878Z,46.37
2018-07-15T10:57:24.839Z,46.43
2018-07-15T10:59:52.821Z,46.24
2018-07-15T11:02:18.805Z,46.34
2018-07-15T11:04:46.876Z,48.25
2018-07-15T11:07:12.934Z,47.77
2018-07-15T11:09:38.966Z,47.33
2018-07-15T11:12:05.071Z,47.85
2018-07-15T11:14:31.032Z,47.73
2018-07-15T11:16:57.029Z,48.52
2018-07-15T11:19:23.029Z,48.54
2018-07-15T11:21:49.020Z,47.30
2018-07-15T11:24:15.001Z,47.53
2018-07-15T11:26:40.955Z,47.96
2018-07-15T11:29:07.019Z,47.38
2018-07-15T11:31:33.049Z,47.59
2018-07-15T11:33:59.034Z,45.94
2018-07-15T11:36:25.027Z,46.47
2018-07-15T11:38:51.755Z,47.16
2018-07-15T11:41:17.737Z,47.10
2018-07-15T11:43:43.729Z,47.01
2018-07-15T11:46:09.675Z,47.70
2018-07-15T11:48:35.637Z,46.62
2018-07-15T11:51:02.645Z,45.81
2018-07-15T11:53:28.660Z,46.47
2018-07-15T11:55:54.620Z,46.41
2018-07-15T11:58:20.660Z,46.11
2018-07-15T12:00:46.625Z,46.21
2018-07-15T12:03:12.775Z,46.06
2018-07-15T12:05:38.773Z,46.47
2018-07-15T12:08:05.025Z,45.28
2018-07-15T12:10:31.034Z,45.35
2018-07-15T12:12:57.042Z,44.62
2018-07-15T12:15:23.012Z,45.03
2018-07-15T12:17:48.999Z,45.79
2018-07-15T12:20:14.982Z,44.82
2018-07-15T12:22:40.975Z,45.07
2018-07-15T12:25:07.051Z,43.82
2018-07-15T12:27:33.950Z,45.12
2018-07-15T12:29:59.989Z,45.55
2018-07-15T12:39:42.201Z,44.21
2018-07-15T12:42:08.279Z,45.67
2018-07-15T12:44:34.481Z,45.39
2018-07-15T12:47:00.503Z,42.54
2018-07-15T12:49:27.429Z,44.52
2018-07-15T12:51:53.557Z,45.46
2018-07-15T12:54:19.669Z,45.09
2018-07-15T12:59:16.869Z,46.53
2018-07-15T13:01:42.942Z,46.18
2018-07-15T13:04:09.063Z,45.81
2018-07-15T13:06:35.270Z,46.80
2018-07-15T13:09:01.392Z,46.39
2018-07-15T13:11:27.443Z,45.48
2018-07-15T13:13:53.521Z,45.26
2018-07-15T13:16:19.662Z,45.30
2018-07-15T13:18:45.771Z,45.43
2018-07-15T13:21:14.873Z,46.01
2018-07-15T13:23:41.042Z,46.23
2018-07-15T13:26:07.165Z,46.39
2018-07-15T13:28:33.209Z,44.84
2018-07-15T13:30:59.303Z,45.26
2018-07-15T13:33:25.376Z,45.09
2018-07-15T13:35:53.418Z,45.37
2018-07-15T13:40:51.913Z,43.92
2018-07-15T13:45:52.843Z,45.15
2018-07-15T13:48:19.889Z,44.77
2018-07-15T13:53:23.163Z,45.16
2018-07-15T13:55:50.570Z,44.65
2018-07-15T13:58:16.705Z,44.67
2018-07-15T14:05:52.708Z,44.49
2018-07-15T14:08:20.665Z,45.21
2018-07-15T14:10:50.364Z,45.88
2018-07-15T14:13:16.617Z,45.44
2018-07-15T14:15:42.805Z,43.75
2018-07-15T14:18:58.607Z,43.04
2018-07-15T14:23:57.778Z,43.24
2018-07-15T14:26:24.696Z,44.56
2018-07-15T14:28:52.869Z,44.32
2018-07-15T14:31:22.101Z,44.94
2018-07-15T14:33:48.308Z,44.92
2018-07-15T14:36:19.243Z,44.71
2018-07-15T14:38:46.610Z,44.64
2018-07-15T14:41:16.662Z,44.32
2018-07-15T14:50:29.931Z,45.14
2018-07-15T14:52:59.253Z,44.18
2018-07-15T14:57:57.022Z,45.24
2018-07-15T15:03:04.659Z,45.16
2018-07-15T15:05:31.343Z,45.28
2018-07-15T15:08:01.764Z,45.23
2018-07-15T15:10:33.570Z,44.40
2018-07-15T15:13:04.853Z,45.24
2018-07-15T15:15:31.833Z,45.23
2018-07-15T15:18:03.784Z,45.75
2018-07-15T15:23:10.696Z,45.07
2018-07-15T15:25:37.023Z,44.18
2018-07-15T15:28:04.106Z,45.15
2018-07-15T15:30:30.254Z,44.19
2018-07-15T15:32:56.958Z,44.00
2018-07-15T15:35:22.972Z,45.15
2018-07-15T15:37:49.035Z,44.57
2018-07-15T15:42:55.897Z,44.41
2018-07-15T15:45:21.934Z,45.15
2018-07-15T15:47:48.002Z,44.02
2018-07-15T15:50:14.074Z,43.96
2018-07-15T15:52:40.064Z,44.43
2018-07-15T15:55:06.041Z,44.20
2018-07-15T15:57:32.875Z,43.56
2018-07-15T15:59:58.946Z,43.98
2018-07-15T16:02:24.966Z,44.20
2018-07-15T16:04:50.985Z,43.79
2018-07-15T16:07:18.018Z,45.66
2018-07-15T16:09:44.034Z,43.59
2018-07-15T16:12:10.077Z,44.40
2018-07-15T16:14:36.056Z,45.57
2018-07-15T16:17:02.028Z,43.86
2018-07-15T16:19:28.102Z,43.74
2018-07-15T16:21:54.105Z,43.49
2018-07-15T16:24:20.117Z,44.39
2018-07-15T16:26:46.284Z,43.88
2018-07-15T16:29:13.412Z,43.85
2018-07-15T16:31:41.107Z,44.26
2018-07-15T16:34:07.304Z,42.75
2018-07-15T16:45:48.975Z,43.88
2018-07-15T16:48:15.710Z,43.26
2018-07-15T16:50:41.948Z,44.94
2018-07-15T16:53:08.088Z,43.93
2018-07-15T16:55:35.261Z,43.48
2018-07-15T16:58:02.148Z,42.92
2018-07-15T17:00:35.694Z,43.25
2018-07-15T17:08:11.540Z,42.93
2018-07-15T17:13:10.261Z,41.21
2018-07-15T17:18:06.796Z,42.37
2018-07-15T17:20:34.754Z,43.35
2018-07-15T17:25:31.105Z,41.68
2018-07-15T17:27:57.151Z,42.35
2018-07-15T17:30:23.158Z,43.19
2018-07-15T17:35:21.963Z,41.77
2018-07-15T17:40:22.938Z,41.77
2018-07-15T17:42:49.065Z,41.19
2018-07-15T17:50:16.348Z,41.44
2018-07-15T17:52:43.845Z,41.84
2018-07-15T17:55:10.032Z,43.12
2018-07-15T17:57:36.101Z,42.33
2018-07-15T18:00:02.194Z,42.35
2018-07-15T18:05:02.922Z,41.50
2018-07-15T18:07:31.194Z,40.39
2018-07-15T18:09:57.325Z,41.31
2018-07-15T18:28:01.878Z,40.62
2018-07-15T18:30:32.754Z,39.74
2018-07-15T18:33:04.719Z,40.98
2018-07-15T18:35:31.805Z,40.85
2018-07-15T18:37:57.879Z,41.95
2018-07-15T18:40:24.663Z,40.79
2018-07-15T18:42:50.757Z,40.40
2018-07-15T18:45:18.276Z,41.36
2018-07-15T18:47:45.612Z,42.46
2018-07-15T18:50:12.311Z,41.83
2018-07-15T18:52:38.849Z,41.51
2018-07-15T18:55:04.999Z,41.66
2018-07-15T18:57:31.087Z,40.84
2018-07-15T18:59:59.205Z,41.96
2018-07-15T19:02:26.914Z,41.61
2018-07-15T19:04:55.603Z,41.54
2018-07-15T19:07:21.844Z,41.72
2018-07-15T19:09:51.108Z,42.39
2018-07-15T19:12:17.129Z,41.48
2018-07-15T19:17:15.814Z,42.37
2018-07-15T19:22:13.947Z,42.78
2018-07-15T19:24:45.216Z,43.06
2018-07-15T19:27:14.476Z,43.15
2018-07-15T19:34:45.864Z,43.69
2018-07-15T19:37:12.019Z,43.94
2018-07-15T19:39:38.816Z,43.48
2018-07-15T19:42:05.046Z,43.57
2018-07-15T19:47:07.915Z,43.78
2018-07-15T19:49:34.100Z,44.35
2018-07-15T19:52:00.211Z,45.65
2018-07-15T19:54:28.550Z,44.71
2018-07-15T19:56:54.708Z,44.79
2018-07-15T19:59:20.997Z,45.14
2018-07-15T20:04:19.843Z,46.18
2018-07-15T20:06:46.017Z,45.07
2018-07-15T20:09:12.061Z,44.36
2018-07-15T20:11:38.623Z,44.80
2018-07-15T20:14:05.365Z,45.05
2018-07-15T20:16:31.464Z,44.43
2018-07-15T20:18:58.260Z,45.25
2018-07-15T20:21:24.376Z,44.93
2018-07-15T20:23:50.629Z,45.26
2018-07-15T20:26:16.744Z,44.59
2018-07-15T20:28:43.380Z,44.77
2018-07-15T20:31:10.376Z,44.98
2018-07-15T20:33:37.284Z,46.09
2018-07-15T20:36:07.253Z,46.10
2018-07-15T20:38:34.203Z,45.49
2018-07-15T20:43:33.365Z,47.43
2018-07-15T20:45:59.509Z,48.08
2018-07-15T20:48:25.561Z,48.12
2018-07-15T20:50:52.921Z,49.35
2018-07-15T20:53:20.085Z,49.87
2018-07-15T20:55:46.246Z,50.39
2018-07-15T20:58:12.448Z,51.26
2018-07-15T21:00:38.705Z,50.22
2018-07-15T21:03:05.917Z,51.22
2018-07-15T21:05:32.147Z,51.37
2018-07-15T21:07:59.051Z,51.69
2018-07-15T21:10:28.971Z,52.09
2018-07-15T21:12:55.169Z,50.78
2018-07-15T21:15:21.236Z,51.87
2018-07-15T21:17:47.516Z,52.07
2018-07-15T21:22:50.029Z,51.58
2018-07-15T21:25:16.107Z,52.02
2018-07-15T21:27:42.148Z,52.61
2018-07-15T21:30:08.316Z,52.83
2018-07-15T21:32:34.728Z,53.64
2018-07-15T21:35:00.817Z,53.44
2018-07-15T21:37:26.923Z,53.40
2018-07-15T21:39:54.363Z,53.76
2018-07-15T21:42:20.450Z,53.57
2018-07-15T21:44:46.497Z,54.23
2018-07-15T21:47:12.494Z,54.13
2018-07-15T21:49:43.316Z,53.19
2018-07-15T21:52:09.454Z,53.13
2018-07-15T21:54:38.811Z,54.10
2018-07-15T21:57:09.781Z,54.54
2018-07-15T22:05:02.145Z,53.76
2018-07-15T22:10:04.173Z,54.48
2018-07-15T22:30:19.660Z,56.54
2018-07-15T22:55:18.593Z,56.74
2018-07-15T23:10:43.726Z,55.93
2018-07-15T23:13:16.039Z,57.10
2018-07-15T23:15:48.129Z,57.97
2018-07-15T23:18:17.404Z,56.88
2018-07-15T23:20:47.532Z,56.36
2018-07-15T23:25:52.907Z,58.42
2018-07-15T23:28:19.324Z,58.50
2018-07-15T23:30:49.689Z,57.94
2018-07-15T23:33:15.974Z,57.19
2018-07-15T23:35:53.133Z,57.52
2018-07-15T23:38:20.103Z,55.27
2018-07-15T23:40:48.991Z,55.62
2018-07-15T23:43:19.654Z,56.20
2018-07-15T23:45:52.082Z,55.12
2018-07-15T23:48:21.427Z,56.85
2018-07-15T23:50:48.782Z,56.32
2018-07-15T23:55:48.493Z,57.83
